Time;durP1;ratioP1;P1;durP2;ratioP2;P2;SDS_P1;SDS_P2;PMS_P1;PMS_P2;Temp;Humidity;BMP_temperature;BMP_pressure;BME280_temperature;BME280_humidity;BME280_pressure;Samples;Min_cycle;Max_cycle;Signal;HPM_P1;HPM_P2
2022/12/24 00:01:04;;;;;;;12.77;2.78;;;;;;;1.67;70.51;94684.44;5004447;28;20101;-65
2022/12/24 00:03:30;;;;;;;11.43;2.70;;;;;;;1.53;71.03;94685.75;5003585;28;20125;-65
2022/12/24 00:05:55;;;;;;;12.88;3.38;;;;;;;1.29;71.07;94704.59;5001723;28;20109;-64
2022/12/24 00:08:20;;;;;;;10.57;3.00;;;;;;;1.30;71.18;94712.28;5000895;28;20077;-63
2022/12/24 00:10:52;;;;;;;9.82;2.53;;;;;;;1.35;70.82;94694.34;5008650;28;20528;-64
2022/12/24 00:13:18;;;;;;;12.55;3.10;;;;;;;1.34;71.43;94703.19;5004886;28;20080;-64
2022/12/24 00:15:43;;;;;;;10.68;2.83;;;;;;;1.54;69.32;94703.16;5003244;28;20099;-63
2022/12/24 00:18:08;;;;;;;10.23;2.88;;;;;;;1.45;69.65;94703.97;5006846;28;20101;-64
2022/12/24 00:20:34;;;;;;;18.67;3.92;;;;;;;1.11;69.74;94703.53;5008677;28;20083;-64
2022/12/24 00:22:59;;;;;;;12.25;3.08;;;;;;;1.22;68.82;94723.50;5006327;28;20506;-64
2022/12/24 00:25:25;;;;;;;10.95;3.17;;;;;;;1.26;69.03;94737.13;5004082;28;20085;-65
2022/12/24 00:27:50;;;;;;;10.43;2.88;;;;;;;1.29;69.03;94705.41;5011538;28;20092;-64
2022/12/24 00:30:15;;;;;;;13.15;3.17;;;;;;;1.23;70.12;94722.53;5003751;28;20102;-64
2022/12/24 00:32:41;;;;;;;23.20;3.58;;;;;;;1.11;69.48;94750.72;5004176;28;20079;-64
2022/12/24 00:35:07;;;;;;;14.20;3.03;;;;;;;1.20;69.47;94733.28;5010206;28;20184;-65
2022/12/24 00:37:32;;;;;;;17.95;3.40;;;;;;;1.26;69.47;94731.91;4999885;28;20098;-64
2022/12/24 00:39:57;;;;;;;13.48;3.13;;;;;;;1.14;70.09;94733.88;5005018;28;20123;-64
2022/12/24 00:42:23;;;;;;;15.10;3.55;;;;;;;1.25;69.23;94759.09;5008231;28;20409;-65
2022/12/24 00:44:48;;;;;;;14.48;2.75;;;;;;;1.29;69.27;94739.50;5006083;28;20334;-63
2022/12/24 00:47:13;;;;;;;12.27;3.30;;;;;;;1.27;68.41;94733.56;5006197;28;20541;-65
2022/12/24 00:49:39;;;;;;;11.70;2.45;;;;;;;1.27;69.44;94730.13;5010752;28;20081;-65
2022/12/24 00:52:04;;;;;;;15.30;4.07;;;;;;;1.07;68.92;94728.38;5009368;28;20059;-62
2022/12/24 00:54:30;;;;;;;15.13;3.33;;;;;;;0.98;69.60;94739.69;5010735;28;20088;-64
2022/12/24 00:56:55;;;;;;;15.05;3.22;;;;;;;1.07;69.46;94736.22;5006011;28;20161;-63
2022/12/24 00:59:21;;;;;;;17.52;3.25;;;;;;;1.13;70.11;94726.13;5011169;28;20101;-64
2022/12/24 01:01:46;;;;;;;16.20;3.08;;;;;;;1.23;68.73;94740.06;5009120;28;20104;-64
2022/12/24 01:06:55;;;;;;;13.00;3.55;;;;;;;1.43;67.91;94759.19;5011125;28;20107;-64
2022/12/24 01:09:21;;;;;;;10.07;2.70;;;;;;;1.53;67.84;94738.22;5012210;28;20086;-65
2022/12/24 01:11:46;;;;;;;13.63;3.10;;;;;;;1.78;66.33;94753.47;5005506;28;20090;-64
2022/12/24 01:14:11;;;;;;;12.32;2.45;;;;;;;1.91;66.10;94753.13;5007880;28;21385;-63
2022/12/24 01:16:37;;;;;;;12.65;3.08;;;;;;;1.58;67.04;94740.41;5010346;28;20097;-64
2022/12/24 01:19:02;;;;;;;16.88;3.50;;;;;;;1.61;66.84;94746.19;5010207;28;20101;-65
2022/12/24 01:21:28;;;;;;;15.07;3.53;;;;;;;1.42;67.02;94752.31;5006222;28;20463;-65
2022/12/24 01:23:53;;;;;;;11.13;2.65;;;;;;;1.49;67.86;94763.03;5006611;28;20078;-64
2022/12/24 01:26:18;;;;;;;14.65;2.92;;;;;;;1.45;67.67;94753.81;5007608;28;20094;-65
2022/12/24 01:28:44;;;;;;;11.98;2.53;;;;;;;1.79;66.69;94753.31;5010410;28;20582;-65
2022/12/24 01:31:13;;;;;;;15.90;3.65;;;;;;;1.47;67.53;94751.88;5007623;28;20163;-65
2022/12/24 01:33:39;;;;;;;12.77;3.50;;;;;;;1.43;69.74;94753.13;5002909;28;20156;-65
2022/12/24 01:36:05;;;;;;;11.07;2.65;;;;;;;1.66;68.74;94763.34;5006575;28;20073;-63
2022/12/24 01:38:30;;;;;;;10.65;2.85;;;;;;;1.78;67.19;94761.34;5010917;28;20741;-63
2022/12/24 01:43:39;;;;;;;15.88;3.05;;;;;;;1.95;66.83;94770.25;5010846;28;20658;-65
2022/12/24 01:46:26;;;;;;;13.25;2.88;;;;;;;2.10;66.12;94771.44;5010458;28;20097;-65
2022/12/24 01:49:01;;;;;;;13.35;3.13;;;;;;;2.11;66.73;94769.63;5006949;28;20547;-63
2022/12/24 01:51:31;;;;;;;5.72;2.03;;;;;;;2.57;65.26;94774.91;5006030;28;20152;-65
2022/12/24 01:54:00;;;;;;;12.60;2.75;;;;;;;1.94;67.00;94781.72;5001902;28;20638;-65
2022/12/24 01:56:26;;;;;;;14.57;2.95;;;;;;;2.22;65.67;94773.88;5005096;28;20161;-66
2022/12/24 01:58:54;;;;;;;10.45;2.45;;;;;;;2.05;66.86;94778.94;5002619;28;20094;-64
2022/12/24 02:01:19;;;;;;;11.38;2.50;;;;;;;2.26;66.06;94776.06;5005549;28;20131;-64
2022/12/24 02:03:44;;;;;;;9.55;2.35;;;;;;;2.49;65.46;94780.88;5007085;28;20117;-64
2022/12/24 02:06:11;;;;;;;9.20;2.03;;;;;;;2.42;66.28;94792.13;5000926;28;20106;-65
2022/12/24 02:08:39;;;;;;;7.65;2.38;;;;;;;2.49;66.78;94791.38;5000869;28;20539;-66
2022/12/24 02:11:13;;;;;;;7.85;2.45;;;;;;;2.49;66.02;94795.84;5008685;28;20450;-65
2022/12/24 02:13:38;;;;;;;18.73;3.28;;;;;;;1.81;67.10;94792.56;5002521;28;20104;-64
2022/12/24 02:16:13;;;;;;;14.27;2.78;;;;;;;2.37;65.75;94797.81;5004266;28;20542;-64
2022/12/24 02:18:47;;;;;;;8.10;2.33;;;;;;;2.26;67.47;94796.22;4984663;28;20094;-64
2022/12/24 02:21:15;;;;;;;18.70;3.33;;;;;;;1.75;71.77;94825.44;5001039;28;20356;-65
2022/12/24 02:23:43;;;;;;;16.58;3.10;;;;;;;1.14;75.52;94820.41;5013774;28;20132;-63
2022/12/24 02:26:13;;;;;;;20.40;3.40;;;;;;;1.54;74.86;94823.84;5003402;28;20687;-65
2022/12/24 02:29:09;;;;;;;10.65;3.05;;;;;;;1.29;75.57;94828.66;5010951;28;20445;-65
2022/12/24 02:31:42;;;;;;;16.00;3.10;;;;;;;1.88;73.92;94818.06;5001764;28;20180;-64
2022/12/24 02:34:17;;;;;;;8.00;2.47;;;;;;;1.88;73.64;94830.38;5010224;28;20641;-64
2022/12/24 02:36:55;;;;;;;7.85;2.20;;;;;;;1.74;73.94;94832.47;5001661;28;20301;-63
2022/12/24 02:39:24;;;;;;;14.95;3.40;;;;;;;1.49;74.38;94849.63;4996641;28;20498;-65
2022/12/24 02:42:07;;;;;;;12.00;2.90;;;;;;;1.48;74.48;94847.97;5012006;28;20481;-64
2022/12/24 02:44:54;;;;;;;13.00;2.78;;;;;;;2.03;72.22;94846.50;5011139;28;20559;-65
2022/12/24 02:47:21;;;;;;;13.32;2.65;;;;;;;2.16;71.30;94843.56;5013490;28;20485;-64
2022/12/24 02:49:46;;;;;;;15.25;3.65;;;;;;;1.24;73.70;94855.31;5001020;28;20129;-64
2022/12/24 02:52:32;;;;;;;7.50;2.53;;;;;;;1.33;73.66;94866.75;5006051;28;20353;-65
2022/12/24 02:54:59;;;;;;;14.27;2.70;;;;;;;1.45;73.01;94859.59;5001018;28;20106;-64
2022/12/24 02:57:29;;;;;;;13.07;2.53;;;;;;;1.73;71.76;94870.19;4987701;28;20077;-64
2022/12/24 03:00:06;;;;;;;12.15;3.03;;;;;;;1.69;71.14;94865.38;4996369;28;20106;-65
2022/12/24 03:02:55;;;;;;;15.45;3.58;;;;;;;1.79;71.33;94878.47;4994672;28;20180;-65
2022/12/24 03:05:31;;;;;;;13.75;2.53;;;;;;;1.66;71.36;94876.16;5002085;28;20089;-65
2022/12/24 03:08:45;;;;;;;10.32;2.55;;;;;;;1.71;70.89;94877.38;4999342;28;20563;-65
2022/12/24 03:11:12;;;;;;;11.50;3.33;;;;;;;1.33;71.80;94895.59;5000319;28;20104;-64
2022/12/24 03:13:38;;;;;;;10.00;2.88;;;;;;;1.60;71.27;94880.19;4986917;28;20093;-64
2022/12/24 03:16:05;;;;;;;6.28;1.98;;;;;;;1.87;70.31;94879.44;5003988;28;20106;-63
2022/12/24 03:18:30;;;;;;;7.97;2.38;;;;;;;2.07;70.12;94882.00;5006500;28;20549;-65
2022/12/24 03:21:25;;;;;;;14.10;2.72;;;;;;;2.00;69.18;94886.16;4998851;28;20081;-64
2022/12/24 03:23:50;;;;;;;16.33;3.22;;;;;;;2.01;69.26;94929.84;4995026;28;20216;-63
2022/12/24 03:26:16;;;;;;;12.85;3.03;;;;;;;1.78;70.10;94888.16;4997493;28;20564;-65
2022/12/24 03:28:41;;;;;;;16.27;3.13;;;;;;;1.70;70.34;94909.03;4982387;28;20086;-64
2022/12/24 03:31:07;;;;;;;15.80;3.58;;;;;;;1.72;70.21;94879.06;4998225;28;20102;-64
2022/12/24 03:33:33;;;;;;;11.30;2.67;;;;;;;1.52;71.08;94887.88;4995709;28;20164;-64
2022/12/24 03:35:58;;;;;;;10.60;2.75;;;;;;;1.49;71.59;94888.97;4980484;28;20093;-64
2022/12/24 03:38:23;;;;;;;10.52;2.78;;;;;;;1.48;71.72;94895.19;4997848;28;20587;-65
2022/12/24 03:40:49;;;;;;;16.70;3.47;;;;;;;1.58;71.19;94893.44;5001725;28;20226;-65
2022/12/24 03:43:14;;;;;;;13.18;2.60;;;;;;;1.84;70.27;94903.34;4998820;28;20140;-64
2022/12/24 03:45:40;;;;;;;15.02;2.97;;;;;;;1.75;70.47;94905.03;5003036;28;20096;-65
2022/12/24 03:48:05;;;;;;;14.40;3.03;;;;;;;1.72;70.96;94907.09;5002882;28;20077;-65
2022/12/24 03:50:31;;;;;;;11.18;2.95;;;;;;;1.77;70.11;94906.69;5004104;28;20696;-65
2022/12/24 03:52:56;;;;;;;12.35;2.80;;;;;;;2.14;69.39;94898.84;5002098;28;20074;-65
2022/12/24 03:55:22;;;;;;;7.20;2.30;;;;;;;2.45;68.15;94895.13;5006153;28;20109;-65
2022/12/24 03:57:47;;;;;;;12.20;2.58;;;;;;;2.30;68.33;94897.41;4998297;28;20117;-65
2022/12/24 04:00:13;;;;;;;11.10;2.55;;;;;;;2.24;68.55;94897.97;5001060;28;20088;-66
2022/12/24 04:02:39;;;;;;;11.65;2.58;;;;;;;1.97;71.52;94912.69;5001560;28;20112;-66
2022/12/24 04:05:05;;;;;;;10.00;2.55;;;;;;;2.13;71.97;94912.97;4999645;28;20316;-65
2022/12/24 04:07:32;;;;;;;9.55;2.15;;;;;;;1.94;73.76;94928.75;4999238;28;20109;-65
2022/12/24 04:09:57;;;;;;;9.88;2.50;;;;;;;2.11;72.56;94909.63;4999406;28;20277;-66
2022/12/24 04:12:23;;;;;;;14.32;3.78;;;;;;;1.81;73.61;94924.59;5001805;28;20080;-66
2022/12/24 04:14:49;;;;;;;13.90;2.88;;;;;;;1.33;75.77;94937.56;4999244;28;20102;-66
2022/12/24 04:17:14;;;;;;;11.90;2.75;;;;;;;1.08;77.84;94929.28;5002115;28;20213;-65
2022/12/24 04:19:40;;;;;;;14.38;2.60;;;;;;;1.06;77.99;94925.13;5003816;28;20101;-66
2022/12/24 04:22:05;;;;;;;8.70;2.30;;;;;;;0.92;78.49;94934.22;5006871;28;20112;-66
2022/12/24 04:24:30;;;;;;;7.63;2.03;;;;;;;0.64;80.53;94931.34;5000146;28;20075;-64
2022/12/24 04:26:56;;;;;;;6.95;2.40;;;;;;;0.76;80.19;94947.81;5002279;28;20139;-65
2022/12/24 04:29:21;;;;;;;12.57;2.67;;;;;;;0.95;79.49;94933.94;5004547;28;20079;-66
2022/12/24 04:31:47;;;;;;;11.57;2.53;;;;;;;1.32;78.42;94935.94;5005925;28;20133;-66
2022/12/24 04:34:12;;;;;;;10.73;2.65;;;;;;;1.05;78.99;94933.94;4999061;28;20484;-65
2022/12/24 04:36:37;;;;;;;10.00;2.15;;;;;;;1.29;79.16;94943.25;5005950;28;20150;-66
2022/12/24 04:39:03;;;;;;;6.00;2.05;;;;;;;1.42;78.49;94940.34;4998821;28;20167;-66
2022/12/24 04:41:28;;;;;;;8.00;2.20;;;;;;;1.03;80.74;94934.09;5002262;28;20069;-65
2022/12/24 04:43:54;;;;;;;9.05;2.13;;;;;;;1.32;78.92;94940.34;5002193;28;20098;-66
2022/12/24 04:46:23;;;;;;;7.70;1.70;;;;;;;1.90;76.12;94951.81;4999881;28;20271;-66
2022/12/24 04:48:49;;;;;;;8.90;2.22;;;;;;;2.12;76.44;94937.53;4999269;28;20080;-66
2022/12/24 04:51:15;;;;;;;6.05;1.80;;;;;;;2.73;74.16;94933.75;4998935;28;20090;-65
2022/12/24 04:53:41;;;;;;;9.40;2.38;;;;;;;2.61;71.00;94944.47;5000127;28;20071;-66
2022/12/24 04:56:11;;;;;;;5.82;1.80;;;;;;;2.94;72.52;94941.41;5003298;28;20074;-66
2022/12/24 04:58:36;;;;;;;7.13;2.00;;;;;;;3.55;69.59;94941.72;5000086;28;20122;-65
2022/12/24 05:01:06;;;;;;;12.30;2.47;;;;;;;3.42;69.80;94933.34;5001472;28;20060;-66
2022/12/24 05:03:32;;;;;;;11.68;2.92;;;;;;;2.99;70.10;94939.16;5006992;28;20200;-65
2022/12/24 05:06:01;;;;;;;8.75;2.45;;;;;;;3.98;66.04;94933.19;5007098;28;20159;-66
2022/12/24 05:08:27;;;;;;;10.60;2.60;;;;;;;4.40;64.97;94942.22;5006122;28;20075;-65
2022/12/24 05:10:56;;;;;;;10.05;2.75;;;;;;;4.50;63.87;94952.63;5008560;28;20506;-66
2022/12/24 05:13:21;;;;;;;5.75;2.20;;;;;;;4.09;67.49;94970.81;5008803;28;20343;-66
2022/12/24 05:15:47;;;;;;;9.27;2.40;;;;;;;4.04;67.65;94969.47;5008577;28;20304;-67
2022/12/24 05:18:12;;;;;;;2.95;1.38;;;;;;;3.31;69.47;94992.28;5008426;28;20598;-65
2022/12/24 05:20:40;;;;;;;7.07;1.40;;;;;;;1.21;75.61;94999.00;5012166;28;20137;-65
2022/12/24 05:28:32;;;;;;;1.65;1.00;;;;;;;0.71;79.17;95000.63;5007082;28;20122;-66
2022/12/24 05:30:58;;;;;;;3.60;1.10;;;;;;;0.93;77.87;94988.28;5013326;28;20124;-66
2022/12/24 05:33:23;;;;;;;4.00;0.95;;;;;;;1.16;77.57;94990.72;5020752;28;20068;-66
2022/12/24 05:35:50;;;;;;;3.42;1.13;;;;;;;1.46;76.16;95002.06;5017125;28;20496;-66
2022/12/24 05:38:16;;;;;;;4.78;1.20;;;;;;;1.42;75.75;94992.81;5013526;28;20566;-66
2022/12/24 05:40:41;;;;;;;5.15;1.35;;;;;;;1.13;77.07;94991.81;5019123;28;20331;-66
2022/12/24 05:43:06;;;;;;;5.05;1.20;;;;;;;0.89;77.97;94989.53;5019703;28;20120;-66
2022/12/24 05:45:32;;;;;;;1.90;0.85;;;;;;;1.04;77.70;94984.72;5007151;28;20632;-66
2022/12/24 05:47:57;;;;;;;3.75;1.38;;;;;;;0.76;79.13;94995.81;5016169;28;20072;-66
2022/12/24 05:50:23;;;;;;;4.75;1.33;;;;;;;0.72;78.72;94987.38;5007193;28;20124;-65
2022/12/24 05:52:48;;;;;;;5.68;1.40;;;;;;;1.19;76.13;94987.81;5005032;28;20572;-66
2022/12/24 05:55:13;;;;;;;4.72;1.20;;;;;;;1.56;75.53;94992.44;5007106;28;20108;-65
2022/12/24 05:57:40;;;;;;;4.50;1.13;;;;;;;1.57;75.58;94996.72;5004867;28;20159;-66
2022/12/24 06:00:06;;;;;;;2.05;1.00;;;;;;;1.29;76.67;94993.91;5006714;28;20132;-65
2022/12/24 06:02:31;;;;;;;3.85;0.90;;;;;;;1.66;75.60;94989.81;5003707;28;20104;-65
2022/12/24 06:04:57;;;;;;;2.83;0.90;;;;;;;1.40;76.13;94994.75;5004979;28;20661;-66
2022/12/24 06:07:22;;;;;;;1.85;0.88;;;;;;;2.06;73.86;95001.16;5001670;28;20147;-66
2022/12/24 06:09:47;;;;;;;5.57;1.02;;;;;;;2.00;73.77;95012.19;5006441;28;20107;-65
2022/12/24 06:12:13;;;;;;;3.15;1.30;;;;;;;2.44;72.55;95000.38;5014086;28;20078;-65
2022/12/24 06:14:38;;;;;;;1.92;1.02;;;;;;;2.76;71.09;95001.84;5014847;28;20105;-65
2022/12/24 06:17:04;;;;;;;3.20;1.40;;;;;;;2.53;71.18;95002.97;5021022;28;20081;-66
2022/12/24 06:19:29;;;;;;;4.72;1.48;;;;;;;3.01;68.64;95005.59;5010074;28;20106;-66
2022/12/24 06:21:54;;;;;;;1.92;0.95;;;;;;;3.40;68.53;95003.72;5009441;28;20100;-66
2022/12/24 06:24:20;;;;;;;4.25;1.58;;;;;;;3.72;67.79;94991.06;5009128;28;20480;-66
2022/12/24 06:26:45;;;;;;;4.32;1.35;;;;;;;3.75;67.34;94996.88;5012265;28;20125;-65
2022/12/24 06:29:10;;;;;;;5.63;1.70;;;;;;;3.65;65.70;95010.13;5004608;28;20069;-65
2022/12/24 06:31:36;;;;;;;5.93;1.65;;;;;;;4.07;67.03;95007.84;5007055;28;20576;-65
2022/12/24 06:34:01;;;;;;;4.90;1.30;;;;;;;4.31;65.48;95014.28;4998682;28;20565;-65
2022/12/24 06:36:27;;;;;;;5.47;1.50;;;;;;;4.34;66.05;95008.69;5000679;28;20127;-66
2022/12/24 06:38:52;;;;;;;7.10;1.48;;;;;;;4.21;63.88;95019.63;4999399;28;20089;-65
2022/12/24 06:41:18;;;;;;;6.53;1.85;;;;;;;3.25;65.82;95016.53;4998478;28;20099;-65
2022/12/24 06:43:48;;;;;;;4.95;1.80;;;;;;;3.90;68.37;95012.97;4997477;28;20175;-65
2022/12/24 06:46:13;;;;;;;6.43;1.80;;;;;;;4.19;65.83;95022.41;4996367;28;20101;-65
2022/12/24 06:48:39;;;;;;;3.40;1.65;;;;;;;3.59;67.69;95029.13;4998810;28;20069;-66
2022/12/24 06:51:04;;;;;;;7.75;2.13;;;;;;;3.66;67.35;95030.19;4999137;28;20142;-66
2022/12/24 06:53:30;;;;;;;6.97;1.95;;;;;;;3.93;66.92;95031.13;4998734;28;20141;-66
2022/12/24 06:56:03;;;;;;;7.55;3.42;;;;;;;3.56;67.36;95029.41;5003962;28;20096;-66
2022/12/24 06:58:29;;;;;;;10.95;2.35;;;;;;;3.45;66.42;95027.00;5000197;28;20155;-65
2022/12/24 07:00:54;;;;;;;5.72;2.00;;;;;;;3.58;68.27;95038.00;4999999;28;20695;-66
2022/12/24 07:03:19;;;;;;;8.30;2.05;;;;;;;3.23;68.13;95042.19;5003605;28;20081;-65
2022/12/24 07:05:45;;;;;;;11.70;2.50;;;;;;;3.77;67.18;95033.56;5003874;28;20456;-66
2022/12/24 07:08:10;;;;;;;7.32;2.20;;;;;;;3.78;68.28;95043.94;5002194;28;20437;-65
2022/12/24 07:10:36;;;;;;;8.40;2.38;;;;;;;3.89;67.41;95042.09;5003312;28;20133;-66
2022/12/24 07:13:01;;;;;;;9.27;2.72;;;;;;;3.35;68.92;95048.91;4999339;28;20098;-65
2022/12/24 07:15:26;;;;;;;8.18;1.98;;;;;;;3.57;69.12;95046.84;5002801;28;20091;-66
2022/12/24 07:17:52;;;;;;;10.25;2.10;;;;;;;3.46;67.35;95057.59;4998814;28;20091;-66
2022/12/24 07:20:17;;;;;;;7.72;2.20;;;;;;;3.79;67.99;95055.31;5002897;28;20130;-65
2022/12/24 07:22:42;;;;;;;9.10;2.20;;;;;;;3.66;68.76;95059.16;4999855;28;20579;-65
2022/12/24 07:25:09;;;;;;;10.32;2.55;;;;;;;3.19;67.99;95064.50;5005205;28;20078;-66
2022/12/24 07:27:34;;;;;;;9.65;2.40;;;;;;;3.78;68.73;95065.03;5000366;28;20088;-65
2022/12/24 07:29:59;;;;;;;13.95;2.80;;;;;;;2.87;70.01;95075.28;5004745;28;20097;-65
2022/12/24 07:32:25;;;;;;;12.57;2.72;;;;;;;3.72;68.48;95070.06;5001075;28;20054;-65
2022/12/24 07:34:50;;;;;;;7.38;2.47;;;;;;;3.66;68.81;95060.94;5000070;28;20080;-64
2022/12/24 07:37:16;;;;;;;15.23;3.13;;;;;;;3.51;67.18;95081.69;4998472;28;20110;-66
2022/12/24 07:39:41;;;;;;;14.23;2.80;;;;;;;3.60;69.11;95077.34;4999400;28;20097;-65
2022/12/24 07:42:07;;;;;;;9.48;2.33;;;;;;;3.60;69.78;95088.69;4999650;28;20146;-64
2022/12/24 07:44:33;;;;;;;10.98;2.47;;;;;;;3.89;68.88;95084.22;5000909;28;20652;-65
2022/12/24 07:46:58;;;;;;;9.38;2.78;;;;;;;3.54;69.35;95089.31;4999180;28;20113;-65
2022/12/24 07:49:24;;;;;;;8.98;2.30;;;;;;;3.73;68.79;95087.50;4994472;28;20053;-66
2022/12/24 07:51:49;;;;;;;27.75;2.45;;;;;;;3.28;70.48;95100.47;5002856;28;20569;-65
2022/12/24 07:54:14;;;;;;;11.65;2.72;;;;;;;3.72;70.03;95107.75;5000621;28;20129;-65
2022/12/24 07:56:41;;;;;;;38.58;3.38;;;;;;;3.88;67.99;95112.34;5007088;28;20259;-65
2022/12/24 07:59:06;;;;;;;17.98;2.60;;;;;;;3.71;68.00;95110.53;5004807;28;20226;-65
2022/12/24 08:01:32;;;;;;;15.27;3.22;;;;;;;3.70;70.15;95108.88;5002713;28;20075;-66
2022/12/24 08:03:57;;;;;;;15.00;2.83;;;;;;;3.43;70.92;95132.38;5000889;28;20106;-65
2022/12/24 08:06:22;;;;;;;13.50;3.53;;;;;;;3.32;69.21;95138.66;4999673;28;20093;-65
2022/12/24 08:08:48;;;;;;;22.17;3.60;;;;;;;3.56;69.11;95129.44;5006231;28;20442;-66
2022/12/24 08:11:13;;;;;;;9.40;2.78;;;;;;;3.18;72.16;95132.06;4999873;28;20278;-65
2022/12/24 08:13:39;;;;;;;11.98;2.42;;;;;;;3.71;68.97;95134.25;5007077;28;20444;-66
2022/12/24 08:16:04;;;;;;;12.05;2.58;;;;;;;3.90;68.88;95123.59;5005768;28;20579;-65
2022/12/24 08:18:30;;;;;;;16.85;3.42;;;;;;;3.08;68.88;95139.16;5011121;28;20226;-66
2022/12/24 08:20:55;;;;;;;10.60;2.83;;;;;;;3.28;70.93;95145.19;5000489;28;20064;-65
2022/12/24 08:23:21;;;;;;;9.30;2.65;;;;;;;3.30;71.03;95151.97;5000870;28;20096;-65
2022/12/24 08:25:47;;;;;;;13.10;2.65;;;;;;;3.76;69.22;95150.41;5000278;28;20093;-65
2022/12/24 08:28:13;;;;;;;20.58;3.45;;;;;;;3.45;68.23;95158.59;5010088;28;20085;-65
2022/12/24 08:30:38;;;;;;;14.95;3.08;;;;;;;3.93;67.27;95161.97;5007837;28;21137;-65
2022/12/24 08:33:04;;;;;;;13.35;3.33;;;;;;;3.43;70.91;95161.31;5007020;28;20064;-64
2022/12/24 08:35:29;;;;;;;7.70;2.25;;;;;;;3.47;70.77;95161.91;5007208;28;20092;-65
2022/12/24 08:37:55;;;;;;;17.35;3.03;;;;;;;3.93;68.41;95168.06;5013857;28;20115;-65
2022/12/24 08:40:20;;;;;;;14.65;3.10;;;;;;;3.14;72.24;95157.81;5018888;28;20142;-65
2022/12/24 08:42:45;;;;;;;15.77;3.08;;;;;;;4.09;67.76;95161.34;5021212;28;20091;-65
2022/12/24 08:45:11;;;;;;;9.27;2.75;;;;;;;3.99;68.21;95160.56;5014213;28;20080;-64
2022/12/24 08:47:37;;;;;;;16.52;3.15;;;;;;;3.64;67.54;95168.22;5007712;28;20183;-64
2022/12/24 08:50:04;;;;;;;13.43;2.72;;;;;;;4.46;67.10;95170.09;5014510;28;20346;-65
2022/12/24 08:52:29;;;;;;;10.90;2.78;;;;;;;4.76;66.10;95169.84;5004907;28;20115;-65
2022/12/24 08:54:54;;;;;;;12.77;3.50;;;;;;;4.75;67.28;95163.75;5005880;28;20527;-64
2022/12/24 08:57:20;;;;;;;16.23;3.53;;;;;;;4.86;65.19;95173.22;5004690;28;20065;-65
2022/12/24 08:59:45;;;;;;;17.75;3.70;;;;;;;5.18;62.34;95171.00;5011393;28;20089;-65
2022/12/24 09:02:11;;;;;;;15.95;3.33;;;;;;;5.31;63.75;95175.88;5004699;28;20078;-65
2022/12/24 09:04:39;;;;;;;13.68;3.00;;;;;;;5.22;63.79;95175.84;5003051;28;20404;-64
2022/12/24 09:07:08;;;;;;;11.70;3.25;;;;;;;5.67;63.31;95175.72;5007774;28;20777;-64
2022/12/24 09:09:34;;;;;;;12.70;3.28;;;;;;;4.93;63.80;95178.72;5000999;28;20053;-64
2022/12/24 09:11:59;;;;;;;12.77;3.83;;;;;;;4.95;64.39;95187.31;5007103;28;20054;-65
2022/12/24 09:14:24;;;;;;;11.98;3.10;;;;;;;4.95;64.11;95188.16;5003105;28;20087;-64
2022/12/24 09:16:50;;;;;;;6.30;2.08;;;;;;;4.90;65.73;95194.84;5009314;28;20052;-65
2022/12/24 09:19:15;;;;;;;12.68;3.25;;;;;;;5.08;64.09;95189.56;5003515;28;20081;-64
2022/12/24 09:21:40;;;;;;;14.73;3.55;;;;;;;5.30;62.73;95201.44;5005950;28;20058;-65
2022/12/24 09:24:06;;;;;;;14.95;3.28;;;;;;;5.47;62.87;95196.25;5004902;28;20139;-65
2022/12/24 09:26:31;;;;;;;18.40;3.50;;;;;;;5.09;64.06;95204.44;5004417;28;20441;-64
2022/12/24 09:28:58;;;;;;;14.48;3.63;;;;;;;4.56;64.58;95209.56;5007592;28;20087;-65
2022/12/24 09:31:23;;;;;;;12.82;2.90;;;;;;;4.47;67.17;95207.81;5008903;28;20607;-65
2022/12/24 09:33:49;;;;;;;15.48;3.40;;;;;;;4.12;65.27;95215.53;5005873;28;20303;-65
2022/12/24 09:36:14;;;;;;;15.75;3.25;;;;;;;4.95;63.22;95214.53;5001974;28;20051;-65
2022/12/24 09:38:39;;;;;;;10.35;2.78;;;;;;;5.30;63.75;95216.44;5005548;28;20078;-65
2022/12/24 09:41:27;;;;;;;13.60;3.20;;;;;;;5.35;63.99;95216.81;5007454;28;20093;-65
2022/12/24 09:43:59;;;;;;;14.15;3.53;;;;;;;5.13;63.23;95218.16;5000610;28;20115;-66
2022/12/24 09:46:35;;;;;;;18.98;3.72;;;;;;;4.35;64.36;95231.75;5008992;28;20161;-64
2022/12/24 09:49:07;;;;;;;10.88;2.55;;;;;;;5.34;63.73;95229.19;5000632;28;20089;-65
2022/12/24 09:51:35;;;;;;;14.77;3.78;;;;;;;5.37;62.04;95237.78;5001313;28;20663;-65
2022/12/24 09:54:00;;;;;;;11.53;3.33;;;;;;;5.87;61.58;95238.91;4989036;28;20110;-65
2022/12/24 09:56:29;;;;;;;14.40;3.70;;;;;;;5.61;63.28;95242.38;5006642;28;20098;-65
2022/12/24 09:59:02;;;;;;;18.40;3.95;;;;;;;5.99;61.43;95242.91;5005506;28;20511;-63
2022/12/24 10:01:32;;;;;;;13.05;3.35;;;;;;;5.66;60.38;95250.69;4988974;28;20063;-64
2022/12/24 10:03:59;;;;;;;15.38;3.80;;;;;;;4.77;63.79;95255.91;5013348;28;20473;-65
2022/12/24 10:06:30;;;;;;;15.82;3.40;;;;;;;6.09;60.09;95245.44;4997923;28;20061;-65
2022/12/24 10:09:21;;;;;;;10.55;3.33;;;;;;;5.86;60.81;95248.63;5005916;28;20098;-65
2022/12/24 10:11:55;;;;;;;16.02;3.40;;;;;;;5.83;61.61;95248.13;5007731;28;20282;-64
2022/12/24 10:14:42;;;;;;;12.98;3.15;;;;;;;5.75;60.66;95235.72;5009190;28;20062;-65
2022/12/24 10:17:29;;;;;;;8.82;2.78;;;;;;;5.90;60.90;95254.44;5010335;28;20516;-65
2022/12/24 10:20:28;;;;;;;13.50;3.83;;;;;;;5.47;62.71;95252.53;5002124;28;20077;-65
2022/12/24 10:23:00;;;;;;;12.15;3.65;;;;;;;5.71;61.71;95256.31;5011248;28;20596;-65
2022/12/24 10:25:48;;;;;;;9.63;2.67;;;;;;;5.97;61.58;95262.56;5003323;28;20057;-65
2022/12/24 10:28:16;;;;;;;17.38;3.30;;;;;;;5.68;62.27;95274.31;5004612;28;20079;-66
2022/12/24 10:30:42;;;;;;;13.73;3.70;;;;;;;5.67;61.75;95284.03;5012596;28;20079;-65
2022/12/24 10:33:25;;;;;;;18.08;3.97;;;;;;;5.64;62.12;95275.59;5003391;28;20052;-66
2022/12/24 10:35:52;;;;;;;12.05;3.38;;;;;;;5.93;60.74;95274.44;5005615;28;20080;-66
2022/12/24 10:38:18;;;;;;;12.70;3.28;;;;;;;5.72;61.56;95273.81;5003708;28;20124;-66
2022/12/24 10:40:46;;;;;;;10.68;2.97;;;;;;;6.04;59.22;95274.16;5010142;28;20076;-65
2022/12/24 10:43:23;;;;;;;13.73;3.50;;;;;;;5.42;61.29;95264.53;5000359;28;20229;-65
2022/12/24 10:46:16;;;;;;;9.25;2.85;;;;;;;4.73;63.71;95257.19;5002075;28;20087;-65
2022/12/24 10:48:44;;;;;;;12.68;3.10;;;;;;;5.42;61.05;95264.53;4996168;28;20075;-65
2022/12/24 10:51:19;;;;;;;8.70;2.17;;;;;;;5.03;62.63;95271.00;4985886;28;20457;-64
2022/12/24 10:54:05;;;;;;;16.65;3.45;;;;;;;5.04;62.34;95275.28;4999794;28;20060;-66
2022/12/24 10:56:31;;;;;;;13.25;2.95;;;;;;;4.35;64.13;95275.75;5001632;28;20359;-66
2022/12/24 10:58:56;;;;;;;16.30;4.28;;;;;;;5.19;62.84;95260.59;5002335;28;20098;-66
2022/12/24 11:01:44;;;;;;;14.98;3.08;;;;;;;5.48;61.76;95267.38;4980935;28;20054;-65
2022/12/24 11:04:21;;;;;;;10.88;3.13;;;;;;;5.69;61.15;95268.88;5003992;28;20107;-66
2022/12/24 11:06:54;;;;;;;11.57;2.85;;;;;;;5.38;61.02;95279.88;4998621;28;20579;-66
2022/12/24 11:09:24;;;;;;;8.95;2.72;;;;;;;4.94;62.99;95273.53;4998775;28;20291;-66
2022/12/24 11:11:50;;;;;;;10.65;3.08;;;;;;;4.62;62.07;95271.44;4998674;28;20156;-66
2022/12/24 11:14:16;;;;;;;9.77;3.10;;;;;;;4.85;62.06;95279.72;5002569;28;20437;-65
2022/12/24 11:16:53;;;;;;;9.40;2.35;;;;;;;5.27;62.65;95269.56;4998611;28;20425;-65
2022/12/24 11:19:30;;;;;;;12.57;2.80;;;;;;;5.59;61.28;95262.84;5001738;28;20074;-66
2022/12/24 11:22:18;;;;;;;9.20;2.97;;;;;;;5.79;60.63;95265.28;4999415;28;20159;-66
2022/12/24 11:24:43;;;;;;;12.15;3.50;;;;;;;6.13;59.93;95267.91;5002126;28;20051;-66
2022/12/24 11:27:31;;;;;;;14.90;3.58;;;;;;;6.13;59.39;95265.28;5003441;28;20094;-66
2022/12/24 11:30:13;;;;;;;16.27;3.70;;;;;;;5.64;59.81;95265.84;5003120;28;20129;-65
2022/12/24 11:32:39;;;;;;;11.70;3.08;;;;;;;5.54;59.29;95273.06;5003718;28;20081;-66
2022/12/24 11:35:06;;;;;;;15.93;3.40;;;;;;;5.86;59.49;95263.66;5001214;28;20088;-65
2022/12/24 11:37:31;;;;;;;7.93;2.83;;;;;;;6.22;57.77;95262.66;4996991;28;20089;-65
2022/12/24 11:39:58;;;;;;;8.18;2.55;;;;;;;6.34;58.72;95260.56;5005395;28;20144;-66
2022/12/24 11:42:35;;;;;;;14.32;3.47;;;;;;;6.53;56.75;95266.63;5003776;28;20173;-65
2022/12/24 11:45:03;;;;;;;13.02;3.35;;;;;;;6.45;58.10;95262.91;5002837;28;20080;-66
2022/12/24 11:47:37;;;;;;;11.50;3.50;;;;;;;6.28;57.78;95254.09;5001794;28;20087;-66
2022/12/24 11:50:20;;;;;;;10.93;3.13;;;;;;;6.38;57.56;95252.16;5002612;28;21078;-65
2022/12/24 11:52:46;;;;;;;19.45;3.58;;;;;;;5.94;59.01;95255.78;5005217;28;20552;-66